Pioneer Knutsen — LMIK — position and weather

sailwx.info

Track history (hours):
 
Tides and Currents Weather Stations Pressure Air Temp Water Temp Dewpoint Dewpoint Depression Visibility Wind Speed Wind Dir Waves Ship Positions

Pioneer Knutsen

Last reported at 2015-Jan-27 12:31 UTC. Time now 2015-Jan-31 07:05 UTC.
Position N 63°38' E 009°28'.

Length 70 m; draft 3.6 m.

Type: Tanker. MMSI: 259393000.

Date/timePositionNaut miles runAvg speedWind from/ knotsBaromVisibWave heightAir tempDewpointWater temp
2015-Jan-27 12:31N 63°38' E 009°28'7 0.2
2015-Jan-26 00:32N 63°44' E 009°32'  
2015-Jan-23 19:32N 63°37' E 009°28'8211.7
2015-Jan-23 12:29N 64°48' E 011°06'1112.1
2015-Jan-23 11:33N 64°56' E 011°24'2 0.1
2015-Jan-22 16:33N 64°57' E 011°28'136 7.8
2015-Jan-21 23:04N 63°15' E 008°02'411.8
2015-Jan-21 22:42N 63°13' E 007°54'236 9.8
2015-Jan-20 22:33N 59°30' E 005°13'1311.4
2015-Jan-20 21:26N 59°17' E 005°20'1111.7
2015-Jan-20 20:31N 59°07' E 005°27'1111.2
2015-Jan-20 19:33N 58°57' E 005°33'2 1.6
2015-Jan-20 18:32N 58°55' E 005°35'0 0.0
2015-Jan-20 17:31N 58°55' E 005°35'0 0.0
2015-Jan-20 16:31N 58°55' E 005°35'0 0.0
2015-Jan-20 15:33N 58°55' E 005°35'0 0.0
2015-Jan-20 14:33N 58°55' E 005°35'0 0.0
2015-Jan-20 13:32N 58°55' E 005°35'0 0.0
2015-Jan-20 12:32N 58°55' E 005°35'2 2.3
2015-Jan-20 11:33N 58°58' E 005°33'2210.8
2015-Jan-20 09:29N 59°19' E 005°20'1011.0
2015-Jan-20 08:33N 59°29' E 005°13'  
Track history (hours):
 
Tides and Currents Weather Stations Pressure Air Temp Water Temp Dewpoint Dewpoint Depression Visibility Wind Speed Wind Dir Waves Ship Positions

Pioneer Knutsen

Last reported at 2015-Jan-27 12:31 UTC. Time now 2015-Jan-31 07:05 UTC.
Position N 63°38' E 009°28'.

Length 70 m; draft 3.6 m.

Type: Tanker. MMSI: 259393000.

Date/timePositionNaut miles runAvg speedWind from/ knotsBaromVisibWave heightAir tempDewpointWater temp
2015-Jan-27 12:31N 63°38' E 009°28'7 0.2
2015-Jan-26 00:32N 63°44' E 009°32'  
2015-Jan-23 19:32N 63°37' E 009°28'8211.7
2015-Jan-23 12:29N 64°48' E 011°06'1112.1
2015-Jan-23 11:33N 64°56' E 011°24'2 0.1
2015-Jan-22 16:33N 64°57' E 011°28'136 7.8
2015-Jan-21 23:04N 63°15' E 008°02'411.8
2015-Jan-21 22:42N 63°13' E 007°54'236 9.8
2015-Jan-20 22:33N 59°30' E 005°13'1311.4
2015-Jan-20 21:26N 59°17' E 005°20'1111.7
2015-Jan-20 20:31N 59°07' E 005°27'1111.2
2015-Jan-20 19:33N 58°57' E 005°33'2 1.6
2015-Jan-20 18:32N 58°55' E 005°35'0 0.0
2015-Jan-20 17:31N 58°55' E 005°35'0 0.0
2015-Jan-20 16:31N 58°55' E 005°35'0 0.0
2015-Jan-20 15:33N 58°55' E 005°35'0 0.0
2015-Jan-20 14:33N 58°55' E 005°35'0 0.0
2015-Jan-20 13:32N 58°55' E 005°35'0 0.0
2015-Jan-20 12:32N 58°55' E 005°35'2 2.3
2015-Jan-20 11:33N 58°58' E 005°33'2210.8
2015-Jan-20 09:29N 59°19' E 005°20'1011.0
2015-Jan-20 08:33N 59°29' E 005°13'  

Dump ship's entire track history